Time;durP1;ratioP1;P1;durP2;ratioP2;P2;SDS_P1;SDS_P2;PMS_P1;PMS_P2;Temp;Humidity;BMP_temperature;BMP_pressure;BME280_temperature;BME280_humidity;BME280_pressure;Samples;Min_cycle;Max_cycle;Signal;HPM_P1;HPM_P2
2021/10/05 19:21:19;;;;;;;11.18;6.55;;;;;;;13.73;100.00;98969.34;4618720;74;79267;-85
2021/10/05 19:27:22;;;;;;;10.55;6.53;;;;;;;13.78;100.00;98970.73;4559568;75;28478;-83
2021/10/05 19:33:25;;;;;;;9.38;5.83;;;;;;;14.05;100.00;98968.58;4554366;75;28459;-82
2021/10/05 19:39:27;;;;;;;14.18;6.78;;;;;;;14.19;100.00;98979.23;4564057;75;28450;-83
2021/10/05 19:45:30;;;;;;;12.18;6.92;;;;;;;14.31;100.00;98980.96;4558903;76;28490;-81
2021/10/05 19:51:31;;;;;;;12.65;7.10;;;;;;;14.27;100.00;98975.27;4578365;75;28512;-81
2021/10/05 19:57:33;;;;;;;13.08;7.08;;;;;;;14.21;100.00;98969.53;4559337;75;28532;-82
2021/10/05 20:03:34;;;;;;;11.50;6.78;;;;;;;14.00;100.00;98973.92;4569450;75;28476;-82
2021/10/05 20:09:36;;;;;;;11.55;6.75;;;;;;;13.99;100.00;98974.98;4564671;75;28515;-80
2021/10/05 20:15:42;;;;;;;13.15;7.40;;;;;;;13.78;100.00;98972.91;4572573;75;28585;-83
2021/10/05 20:21:45;;;;;;;14.20;8.03;;;;;;;13.74;100.00;98960.95;4553815;75;28520;-81
2021/10/05 20:27:49;;;;;;;13.83;7.30;;;;;;;13.88;100.00;98980.29;4592683;75;28463;-79
2021/10/05 20:33:54;;;;;;;11.90;6.65;;;;;;;13.78;100.00;98986.42;4577830;75;28467;-79
2021/10/05 20:39:58;;;;;;;12.63;6.95;;;;;;;13.61;100.00;98986.50;4602433;75;28517;-82
2021/10/05 20:45:59;;;;;;;13.10;7.80;;;;;;;13.59;100.00;98979.71;4563350;75;28444;-81
2021/10/05 20:52:01;;;;;;;14.93;8.05;;;;;;;13.72;100.00;98973.11;4589663;75;28519;-81
2021/10/05 20:58:04;;;;;;;13.13;6.90;;;;;;;13.55;100.00;98963.19;4568258;76;28520;-82
2021/10/05 21:04:05;;;;;;;12.25;6.65;;;;;;;13.28;100.00;98965.28;4575820;75;28464;-82
2021/10/05 21:10:07;;;;;;;12.98;7.90;;;;;;;13.31;100.00;98973.39;4597106;75;28551;-81
2021/10/05 21:16:10;;;;;;;13.10;7.45;;;;;;;13.29;100.00;98975.02;4567529;75;28473;-81
2021/10/05 21:22:12;;;;;;;13.08;6.33;;;;;;;13.00;100.00;98964.37;4564138;76;28551;-79
2021/10/05 21:28:13;;;;;;;11.73;6.78;;;;;;;13.23;100.00;98962.51;4589365;75;28514;-78
2021/10/05 21:34:15;;;;;;;12.35;6.92;;;;;;;12.90;100.00;98958.28;4605606;75;28467;-80
2021/10/05 21:40:17;;;;;;;13.70;7.15;;;;;;;12.84;100.00;98957.95;4570927;75;28506;-79
2021/10/05 21:46:18;;;;;;;11.55;6.87;;;;;;;12.83;100.00;98971.95;4569505;75;28873;-80
2021/10/05 21:52:20;;;;;;;13.85;6.95;;;;;;;12.89;100.00;98969.34;4561148;75;28458;-83
2021/10/05 21:58:21;;;;;;;13.15;7.60;;;;;;;12.92;100.00;98960.23;4444848;77;28528;-79
2021/10/05 22:04:24;;;;;;;14.33;7.35;;;;;;;12.69;100.00;98967.98;4554840;77;28525;-81
2021/10/05 22:10:27;;;;;;;15.88;7.08;;;;;;;12.69;100.00;98976.07;4546586;77;28543;-80
2021/10/05 22:16:29;;;;;;;13.03;7.17;;;;;;;12.69;100.00;98964.73;4533582;76;28544;-81
2021/10/05 22:22:30;;;;;;;11.40;6.33;;;;;;;12.85;100.00;98966.84;4551559;77;28522;-80
2021/10/05 22:28:32;;;;;;;14.23;7.10;;;;;;;12.66;100.00;98963.09;4553022;76;28492;-78
2021/10/05 22:34:34;;;;;;;12.10;7.55;;;;;;;12.72;100.00;98973.42;4565851;76;28464;-79
2021/10/05 22:40:35;;;;;;;11.43;7.70;;;;;;;12.70;100.00;98988.49;4546105;76;28515;-79
2021/10/05 22:46:38;;;;;;;14.85;7.30;;;;;;;12.59;100.00;99006.92;4564642;76;28550;-79
2021/10/05 22:52:40;;;;;;;19.52;9.05;;;;;;;12.42;100.00;99021.20;4560751;77;28461;-79
2021/10/05 22:58:42;;;;;;;13.38;6.95;;;;;;;12.76;100.00;99033.37;4571634;77;28475;-80
2021/10/05 23:04:43;;;;;;;13.85;7.75;;;;;;;12.69;100.00;99040.81;4579888;76;28538;-80
2021/10/05 23:10:44;;;;;;;13.60;7.70;;;;;;;12.61;100.00;99047.44;4568997;76;28536;-80
2021/10/05 23:16:45;;;;;;;15.43;7.45;;;;;;;12.47;100.00;99053.66;4546326;77;28487;-79
2021/10/05 23:22:47;;;;;;;12.30;7.45;;;;;;;12.39;100.00;99055.41;4570079;76;28587;-79
2021/10/05 23:28:48;;;;;;;11.70;6.40;;;;;;;12.43;100.00;99039.02;4563738;76;28479;-79
2021/10/05 23:34:50;;;;;;;13.88;7.70;;;;;;;12.47;100.00;99048.27;4576920;77;28455;-79
2021/10/05 23:40:51;;;;;;;12.85;7.58;;;;;;;12.33;100.00;99052.32;4568382;77;28551;-79
2021/10/05 23:46:53;;;;;;;12.73;6.75;;;;;;;12.13;100.00;99060.31;4474711;78;28502;-78
2021/10/05 23:52:54;;;;;;;13.88;7.15;;;;;;;12.18;100.00;99077.94;4566266;76;28531;-78
2021/10/05 23:58:57;;;;;;;13.28;6.65;;;;;;;12.17;100.00;99072.78;4562887;77;28536;-78
